createdAt,value
2022-11-12T00:00:04.122Z,2.43
2022-11-12T00:03:26.332Z,2.50
2022-11-12T00:06:48.281Z,2.40
2022-11-12T00:10:12.132Z,2.77
2022-11-12T00:13:35.605Z,2.40
2022-11-12T00:16:57.811Z,2.87
2022-11-12T00:20:20.022Z,2.60
2022-11-12T00:23:42.133Z,2.40
2022-11-12T00:27:04.681Z,2.60
2022-11-12T00:30:28.332Z,2.70
2022-11-12T00:33:50.842Z,2.50
2022-11-12T00:37:13.323Z,2.90
2022-11-12T00:40:35.782Z,3.20
2022-11-12T00:43:58.272Z,3.27
2022-11-12T00:47:22.124Z,3.10
2022-11-12T00:50:44.678Z,3.60
2022-11-12T00:54:07.113Z,3.70
2022-11-12T00:57:29.610Z,3.67
2022-11-12T01:00:51.926Z,3.77
2022-11-12T01:04:15.734Z,3.80
2022-11-12T01:07:38.192Z,3.33
2022-11-12T01:11:08.155Z,3.80
2022-11-12T01:14:30.143Z,3.90
2022-11-12T01:17:52.226Z,3.40
2022-11-12T01:21:16.503Z,3.70
2022-11-12T01:24:38.693Z,3.70
2022-11-12T01:28:00.682Z,3.80
2022-11-12T01:31:25.385Z,3.70
2022-11-12T01:34:47.881Z,3.70
2022-11-12T01:38:11.687Z,4.60
2022-11-12T01:41:36.012Z,4.80
2022-11-12T01:44:58.273Z,5.00
2022-11-12T01:48:28.275Z,5.20
2022-11-12T01:51:53.503Z,4.87
2022-11-12T01:55:21.481Z,4.70
2022-11-12T01:58:45.610Z,5.67
2022-11-12T02:02:07.832Z,5.17
2022-11-12T02:05:32.642Z,4.50
2022-11-12T02:08:56.132Z,5.13
2022-11-12T02:12:33.763Z,5.07
2022-11-12T02:15:56.744Z,6.67
2022-11-12T02:19:21.491Z,6.23
2022-11-12T02:22:45.282Z,5.67
2022-11-12T02:26:07.601Z,4.80
2022-11-12T02:29:29.715Z,5.00
2022-11-12T02:32:51.891Z,5.50
2022-11-12T02:36:14.251Z,5.83
2022-11-12T02:39:39.853Z,5.30
2022-11-12T02:43:02.023Z,4.70
2022-11-12T02:46:24.541Z,4.93
2022-11-12T02:49:46.840Z,5.27
2022-11-12T02:53:09.160Z,4.97
2022-11-12T02:56:32.573Z,5.10
2022-11-12T02:59:55.141Z,5.60
2022-11-12T03:03:17.909Z,5.50
2022-11-12T03:06:39.979Z,5.77
2022-11-12T03:10:08.813Z,6.00
2022-11-12T03:13:35.317Z,6.10
2022-11-12T03:16:57.741Z,6.00
2022-11-12T03:20:20.640Z,5.90
2022-11-12T03:23:42.761Z,6.03
2022-11-12T03:27:04.950Z,6.07
2022-11-12T03:30:30.911Z,7.43
2022-11-12T03:33:58.010Z,9.30
2022-11-12T03:37:20.280Z,9.10
2022-11-12T03:40:42.611Z,8.97
2022-11-12T03:44:04.763Z,8.07
2022-11-12T03:47:28.171Z,6.90
2022-11-12T03:50:50.861Z,6.77
2022-11-12T03:54:13.201Z,6.80
2022-11-12T03:57:35.495Z,6.60
2022-11-12T04:00:57.704Z,7.03
2022-11-12T04:04:21.421Z,6.60
2022-11-12T04:08:01.087Z,6.60
2022-11-12T04:11:23.386Z,7.00
2022-11-12T04:14:45.432Z,7.03
2022-11-12T04:18:25.500Z,6.43
2022-11-12T04:21:58.151Z,6.87
2022-11-12T04:25:38.212Z,7.27
2022-11-12T04:29:18.073Z,6.97
2022-11-12T04:32:43.012Z,7.23
2022-11-12T04:36:05.434Z,7.17
2022-11-12T04:39:29.152Z,7.30
2022-11-12T04:43:08.774Z,7.13
2022-11-12T04:46:31.735Z,7.23
2022-11-12T04:49:53.903Z,7.80
2022-11-12T04:53:16.702Z,7.60
2022-11-12T04:56:40.445Z,8.00
2022-11-12T05:00:02.854Z,8.23
2022-11-12T05:03:25.041Z,8.57
2022-11-12T05:06:53.405Z,9.17
2022-11-12T05:10:15.761Z,8.97
2022-11-12T05:13:39.150Z,8.73
2022-11-12T05:17:01.361Z,8.17
2022-11-12T05:20:23.195Z,9.33
2022-11-12T05:23:45.382Z,9.20
2022-11-12T05:27:11.404Z,8.83
2022-11-12T05:30:34.931Z,9.20
2022-11-12T05:33:57.244Z,9.27
2022-11-12T05:37:19.508Z,8.87
2022-11-12T05:40:46.371Z,9.60
2022-11-12T05:44:08.619Z,10.17
2022-11-12T05:47:32.471Z,10.77
2022-11-12T05:54:37.191Z,9.57
2022-11-12T05:57:59.611Z,10.17
2022-11-12T06:01:22.403Z,9.27
2022-11-12T06:04:46.201Z,10.40
2022-11-12T06:08:08.484Z,10.57
2022-11-12T06:11:30.742Z,11.67
2022-11-12T06:14:52.691Z,13.30
2022-11-12T06:18:15.238Z,11.93
2022-11-12T06:21:38.667Z,11.23
2022-11-12T06:25:00.863Z,11.63
2022-11-12T06:28:23.516Z,10.83
2022-11-12T06:31:45.711Z,11.00
2022-11-12T06:35:09.072Z,11.03
2022-11-12T06:38:33.590Z,10.97
2022-11-12T06:41:55.983Z,10.90
2022-11-12T06:45:18.421Z,11.13
2022-11-12T06:48:40.830Z,9.23
2022-11-12T06:52:03.062Z,9.87
2022-11-12T06:55:26.791Z,8.27
2022-11-12T06:58:48.851Z,8.63
2022-11-12T07:02:13.961Z,8.23
2022-11-12T07:05:38.616Z,6.87
2022-11-12T07:09:01.023Z,6.93
2022-11-12T07:12:24.812Z,6.83
2022-11-12T07:15:47.050Z,5.97
2022-11-12T07:19:09.282Z,5.30
2022-11-12T07:22:31.651Z,4.47
2022-11-12T07:25:59.017Z,3.77
2022-11-12T07:29:42.595Z,3.90
2022-11-12T07:33:05.003Z,3.70
2022-11-12T07:36:27.692Z,3.50
2022-11-12T07:39:50.811Z,2.83
2022-11-12T07:43:13.495Z,3.43
2022-11-12T07:46:37.952Z,4.17
2022-11-12T07:50:00.533Z,3.60
2022-11-12T07:53:22.991Z,2.83
2022-11-12T07:56:45.451Z,3.63
2022-11-12T08:00:09.462Z,3.10
2022-11-12T08:03:33.221Z,3.33
2022-11-12T08:06:55.945Z,3.13
2022-11-12T08:10:18.452Z,3.53
2022-11-12T08:13:40.901Z,3.07
2022-11-12T08:17:03.141Z,3.03
2022-11-12T08:20:27.302Z,2.87
2022-11-12T08:23:49.519Z,3.67
2022-11-12T08:27:11.966Z,2.87
2022-11-12T08:30:34.853Z,4.00
2022-11-12T08:33:57.103Z,2.90
2022-11-12T08:37:20.982Z,3.50
2022-11-12T08:40:43.413Z,3.17
2022-11-12T08:44:08.758Z,3.50
2022-11-12T08:47:31.222Z,3.03
2022-11-12T08:50:54.133Z,3.20
2022-11-12T08:54:18.002Z,2.97
2022-11-12T08:57:44.732Z,3.17
2022-11-12T09:01:08.667Z,2.70
2022-11-12T09:04:31.843Z,3.43
2022-11-12T09:07:59.163Z,3.50
2022-11-12T09:11:23.011Z,2.90
2022-11-12T09:14:45.325Z,3.10
2022-11-12T09:18:10.224Z,3.70
2022-11-12T09:21:32.503Z,3.60
2022-11-12T09:24:54.652Z,4.07
2022-11-12T09:28:20.295Z,3.83
2022-11-12T09:31:42.274Z,3.57
2022-11-12T09:35:05.264Z,3.27
2022-11-12T09:38:27.564Z,3.20
2022-11-12T09:41:49.866Z,3.10
2022-11-12T09:45:22.568Z,2.87
2022-11-12T09:48:50.063Z,3.13
2022-11-12T09:52:18.422Z,3.30
2022-11-12T09:55:44.593Z,3.37
2022-11-12T09:59:13.740Z,3.30
2022-11-12T10:02:43.248Z,3.37
2022-11-12T10:06:13.654Z,3.60
2022-11-12T10:09:48.640Z,3.30
2022-11-12T10:13:30.452Z,3.50
2022-11-12T10:17:02.893Z,3.83
2022-11-12T10:20:38.780Z,3.23
2022-11-12T10:24:02.583Z,3.50
2022-11-12T10:27:29.844Z,3.10
2022-11-12T10:30:53.934Z,3.20
2022-11-12T10:34:21.432Z,3.30
2022-11-12T10:37:50.962Z,2.90
2022-11-12T10:41:31.862Z,3.17
2022-11-12T10:44:54.373Z,2.77
2022-11-12T10:48:27.464Z,3.30
2022-11-12T10:51:57.771Z,2.60
2022-11-12T10:55:24.253Z,3.30
2022-11-12T10:58:46.802Z,3.00
2022-11-12T11:02:18.657Z,3.67
2022-11-12T11:05:51.791Z,3.80
2022-11-12T11:09:20.840Z,3.83
2022-11-12T11:12:44.710Z,3.40
2022-11-12T11:16:09.412Z,2.93
2022-11-12T11:19:37.803Z,3.53
2022-11-12T11:23:05.363Z,3.10
2022-11-12T11:26:34.480Z,3.50
2022-11-12T11:30:07.455Z,3.90
2022-11-12T11:33:42.112Z,2.97
2022-11-12T11:37:18.052Z,4.23
2022-11-12T11:40:48.331Z,4.50
2022-11-12T11:44:22.296Z,3.40
2022-11-12T11:48:01.530Z,3.80
2022-11-12T11:51:38.561Z,3.80
2022-11-12T11:55:10.865Z,3.77
2022-11-12T11:58:50.851Z,3.40
2022-11-12T12:02:34.251Z,4.00
2022-11-12T12:06:17.449Z,4.10
2022-11-12T12:09:48.481Z,5.00
2022-11-12T12:13:18.681Z,4.50
2022-11-12T12:16:52.182Z,4.40
2022-11-12T12:20:20.591Z,3.53
2022-11-12T12:23:48.591Z,3.70
2022-11-12T12:27:13.823Z,4.00
2022-11-12T12:30:40.701Z,3.87
2022-11-12T12:34:06.271Z,3.70
2022-11-12T12:37:37.345Z,4.20
2022-11-12T12:41:08.328Z,4.40
2022-11-12T12:44:53.161Z,6.27
2022-11-12T12:48:20.190Z,6.10
2022-11-12T12:51:42.310Z,6.10
2022-11-12T12:55:04.670Z,6.80
2022-11-12T12:58:30.951Z,5.47
2022-11-12T13:01:59.721Z,5.03
2022-11-12T13:05:31.492Z,4.67
2022-11-12T13:08:57.882Z,5.27
2022-11-12T13:12:25.972Z,4.93
2022-11-12T13:15:50.742Z,5.33
2022-11-12T13:19:28.302Z,6.47
2022-11-12T13:22:52.653Z,5.73
2022-11-12T13:26:44.724Z,4.97
2022-11-12T13:30:09.751Z,4.83
2022-11-12T13:33:37.021Z,5.10
2022-11-12T13:37:04.402Z,6.30
2022-11-12T13:40:47.528Z,6.50
2022-11-12T13:44:17.143Z,7.07
2022-11-12T13:47:40.042Z,5.83
2022-11-12T13:51:07.852Z,5.43
2022-11-12T13:54:33.424Z,4.73
2022-11-12T13:57:57.712Z,5.70
2022-11-12T14:01:22.970Z,5.70
2022-11-12T14:04:45.268Z,4.83
2022-11-12T14:08:30.723Z,5.20
2022-11-12T14:12:09.603Z,5.23
2022-11-12T14:15:51.224Z,5.33
2022-11-12T14:19:49.633Z,5.57
2022-11-12T14:23:21.578Z,6.53
2022-11-12T14:26:46.783Z,8.03
2022-11-12T14:30:22.201Z,7.47
2022-11-12T14:33:44.463Z,7.37
2022-11-12T14:37:06.873Z,6.67
2022-11-12T14:40:33.642Z,5.80
2022-11-12T14:44:11.497Z,5.77
2022-11-12T14:47:34.884Z,5.60
2022-11-12T14:51:03.102Z,5.70
2022-11-12T14:54:32.052Z,5.17
2022-11-12T14:57:58.982Z,4.37
2022-11-12T15:02:03.703Z,4.47
2022-11-12T15:05:14.972Z,4.53
2022-11-12T15:08:39.072Z,4.63
2022-11-12T15:12:01.426Z,3.90
2022-11-12T15:15:24.934Z,3.90
2022-11-12T15:19:04.750Z,3.80
2022-11-12T15:22:27.082Z,3.50
2022-11-12T15:25:59.322Z,4.37
2022-11-12T15:29:27.192Z,4.33
2022-11-12T15:32:51.035Z,4.63
2022-11-12T15:36:18.093Z,4.43
2022-11-12T15:39:43.101Z,4.40
2022-11-12T15:43:05.482Z,4.80
2022-11-12T15:46:27.985Z,5.07
2022-11-12T15:49:53.451Z,5.40
2022-11-12T15:53:16.420Z,7.73
2022-11-12T15:56:38.615Z,11.67
2022-11-12T16:00:07.871Z,11.70
2022-11-12T16:03:31.533Z,10.40
2022-11-12T16:06:55.399Z,11.67
2022-11-12T16:10:19.542Z,13.13
2022-11-12T16:13:41.893Z,12.80
2022-11-12T16:17:04.173Z,11.70
2022-11-12T16:20:28.663Z,10.57
2022-11-12T16:23:52.641Z,8.80
2022-11-12T16:27:16.202Z,9.10
2022-11-12T16:30:38.372Z,8.27
2022-11-12T16:34:00.694Z,7.87
2022-11-12T16:37:22.702Z,7.60
2022-11-12T16:40:46.935Z,8.00
2022-11-12T16:44:09.244Z,8.33
2022-11-12T16:47:32.999Z,8.37
2022-11-12T16:50:55.133Z,9.13
2022-11-12T16:54:17.363Z,8.47
2022-11-12T16:57:41.621Z,7.77
2022-11-12T17:01:03.997Z,7.17
2022-11-12T17:04:26.382Z,7.13
2022-11-12T17:07:48.911Z,7.23
2022-11-12T17:11:11.372Z,7.30
2022-11-12T17:14:35.212Z,7.00
2022-11-12T17:17:57.684Z,7.30
2022-11-12T17:21:21.082Z,7.77
2022-11-12T17:24:43.192Z,7.23
2022-11-12T17:28:05.681Z,7.70
2022-11-12T17:31:29.216Z,7.43
2022-11-12T17:34:51.732Z,7.50
2022-11-12T17:38:14.203Z,7.77
2022-11-12T17:41:36.573Z,7.63
2022-11-12T17:44:58.802Z,6.60
2022-11-12T17:48:23.332Z,7.00
2022-11-12T17:51:45.903Z,7.60
2022-11-12T17:55:08.724Z,7.70
2022-11-12T17:58:31.094Z,9.97
2022-11-12T18:01:53.633Z,8.10
2022-11-12T18:05:17.082Z,8.83
2022-11-12T18:08:39.722Z,8.87
2022-11-12T18:12:01.945Z,7.20
2022-11-12T18:15:23.952Z,8.37
2022-11-12T18:18:46.592Z,8.17
2022-11-12T18:22:12.883Z,11.13
2022-11-12T18:25:38.410Z,8.37
2022-11-12T18:29:01.852Z,8.43
2022-11-12T18:32:24.114Z,9.10
2022-11-12T18:35:46.572Z,10.07
2022-11-12T18:39:10.124Z,9.50
2022-11-12T18:42:32.463Z,9.93
2022-11-12T18:45:59.347Z,10.97
2022-11-12T18:49:21.721Z,9.60
2022-11-12T18:52:44.125Z,8.90
2022-11-12T18:56:10.264Z,8.23
2022-11-12T18:59:32.872Z,7.40
2022-11-12T19:02:54.873Z,8.00
2022-11-12T19:06:17.413Z,6.47
2022-11-12T19:09:39.872Z,6.40
2022-11-12T19:13:05.210Z,6.03
2022-11-12T19:16:27.502Z,6.23
2022-11-12T19:19:49.875Z,6.10
2022-11-12T19:23:12.537Z,5.33
2022-11-12T19:26:34.983Z,5.70
2022-11-12T19:30:02.833Z,4.50
2022-11-12T19:33:25.743Z,4.73
2022-11-12T19:36:48.442Z,3.90
2022-11-12T19:40:16.882Z,4.80
2022-11-12T19:43:40.485Z,5.23
2022-11-12T19:47:04.146Z,6.10
2022-11-12T19:50:26.482Z,5.40
2022-11-12T19:53:49.464Z,5.17
2022-11-12T19:57:11.733Z,5.13
2022-11-12T20:00:33.712Z,4.20
2022-11-12T20:03:57.799Z,4.03
2022-11-12T20:07:20.077Z,4.73
2022-11-12T20:10:42.084Z,4.47
2022-11-12T20:14:04.523Z,4.37
2022-11-12T20:17:26.683Z,3.73
2022-11-12T20:20:51.856Z,3.50
2022-11-12T20:24:14.244Z,3.67
2022-11-12T20:27:36.460Z,3.73
2022-11-12T20:31:03.593Z,3.47
2022-11-12T20:34:27.002Z,3.07
2022-11-12T20:37:50.733Z,3.43
2022-11-12T20:41:18.093Z,3.87
2022-11-12T20:44:41.730Z,3.07
2022-11-12T20:48:04.882Z,3.50
2022-11-12T20:51:29.831Z,4.57
2022-11-12T20:54:53.362Z,4.43
2022-11-12T20:58:15.782Z,4.00
2022-11-12T21:01:38.651Z,4.87
2022-11-12T21:05:00.841Z,5.03
2022-11-12T21:08:23.143Z,4.30
2022-11-12T21:11:47.132Z,4.90
2022-11-12T21:15:11.142Z,5.07
2022-11-12T21:18:35.051Z,4.57
2022-11-12T21:21:57.470Z,5.10
2022-11-12T21:25:20.164Z,4.60
2022-11-12T21:28:45.748Z,5.20
2022-11-12T21:32:08.209Z,5.63
2022-11-12T21:35:30.653Z,4.87
2022-11-12T21:38:52.754Z,4.63
2022-11-12T21:42:16.451Z,5.13
2022-11-12T21:45:46.463Z,5.47
2022-11-12T21:49:08.810Z,4.93
2022-11-12T21:52:30.903Z,5.10
2022-11-12T21:55:53.043Z,5.10
2022-11-12T21:59:15.650Z,4.73
2022-11-12T22:02:39.243Z,4.80
2022-11-12T22:06:01.574Z,4.13
2022-11-12T22:09:23.632Z,4.70
2022-11-12T22:13:12.130Z,4.20
2022-11-12T22:16:30.332Z,3.83
2022-11-12T22:19:57.003Z,3.83
2022-11-12T22:23:19.681Z,3.70
2022-11-12T22:26:42.012Z,3.90
2022-11-12T22:30:04.164Z,3.60
2022-11-12T22:33:26.244Z,3.83
2022-11-12T22:36:49.793Z,3.73
2022-11-12T22:40:13.864Z,4.10
2022-11-12T22:43:38.192Z,4.30
2022-11-12T22:47:00.531Z,4.00
2022-11-12T22:50:22.966Z,3.90
2022-11-12T22:53:46.332Z,3.70
2022-11-12T22:57:08.593Z,4.10
2022-11-12T23:00:32.131Z,3.40
2022-11-12T23:03:57.034Z,4.60
2022-11-12T23:07:19.341Z,4.20
2022-11-12T23:10:45.752Z,4.47
2022-11-12T23:14:08.238Z,4.43
2022-11-12T23:17:30.640Z,4.47
2022-11-12T23:20:53.166Z,4.60
2022-11-12T23:24:15.201Z,3.90
2022-11-12T23:27:39.244Z,3.80
2022-11-12T23:31:02.052Z,3.80
2022-11-12T23:34:24.589Z,3.90
2022-11-12T23:37:46.732Z,3.63
2022-11-12T23:41:08.893Z,4.57
2022-11-12T23:44:32.694Z,4.30
2022-11-12T23:47:56.193Z,4.67
2022-11-12T23:51:20.559Z,4.70
2022-11-12T23:54:42.953Z,4.77
2022-11-12T23:58:05.371Z,4.63
